sensor_id;sensor_type;location;lat;lon;timestamp;temperature;humidity
52621;DHT22;38515;53.160;6.990;2023-06-26T00:02:06;22.30;99.90
52621;DHT22;38515;53.160;6.990;2023-06-26T00:04:32;22.20;99.90
52621;DHT22;38515;53.160;6.990;2023-06-26T00:06:58;22.20;99.90
52621;DHT22;38515;53.160;6.990;2023-06-26T00:09:24;22.20;99.90
52621;DHT22;38515;53.160;6.990;2023-06-26T00:11:50;22.10;99.90
52621;DHT22;38515;53.160;6.990;2023-06-26T00:14:18;22.10;99.90
52621;DHT22;38515;53.160;6.990;2023-06-26T00:16:49;22.00;99.90
52621;DHT22;38515;53.160;6.990;2023-06-26T00:19:15;22.00;99.90
52621;DHT22;38515;53.160;6.990;2023-06-26T00:21:41;22.00;99.90
52621;DHT22;38515;53.160;6.990;2023-06-26T00:24:17;22.00;99.90
52621;DHT22;38515;53.160;6.990;2023-06-26T00:26:46;21.90;99.90
52621;DHT22;38515;53.160;6.990;2023-06-26T00:29:12;21.90;99.90
52621;DHT22;38515;53.160;6.990;2023-06-26T00:31:38;21.90;99.90
52621;DHT22;38515;53.160;6.990;2023-06-26T00:34:05;21.90;99.90
52621;DHT22;38515;53.160;6.990;2023-06-26T00:36:31;21.90;99.90
52621;DHT22;38515;53.160;6.990;2023-06-26T00:38:58;21.90;99.90
52621;DHT22;38515;53.160;6.990;2023-06-26T00:41:24;21.80;99.90
52621;DHT22;38515;53.160;6.990;2023-06-26T00:43:50;21.80;99.90
52621;DHT22;38515;53.160;6.990;2023-06-26T00:46:17;21.80;99.90
52621;DHT22;38515;53.160;6.990;2023-06-26T00:48:44;21.80;99.90
52621;DHT22;38515;53.160;6.990;2023-06-26T00:51:11;21.80;99.90
52621;DHT22;38515;53.160;6.990;2023-06-26T00:53:37;21.80;99.90
52621;DHT22;38515;53.160;6.990;2023-06-26T00:56:04;21.80;99.90
52621;DHT22;38515;53.160;6.990;2023-06-26T00:58:30;21.80;99.90
52621;DHT22;38515;53.160;6.990;2023-06-26T01:00:56;21.80;99.90
52621;DHT22;38515;53.160;6.990;2023-06-26T01:03:23;21.80;99.90
52621;DHT22;38515;53.160;6.990;2023-06-26T01:05:55;21.80;99.90
52621;DHT22;38515;53.160;6.990;2023-06-26T01:08:22;21.80;99.90
52621;DHT22;38515;53.160;6.990;2023-06-26T01:10:48;21.80;99.90
52621;DHT22;38515;53.160;6.990;2023-06-26T01:13:15;21.70;99.90
52621;DHT22;38515;53.160;6.990;2023-06-26T01:15:41;21.70;99.90
52621;DHT22;38515;53.160;6.990;2023-06-26T01:18:07;21.70;99.90
52621;DHT22;38515;53.160;6.990;2023-06-26T01:20:36;21.70;99.90
52621;DHT22;38515;53.160;6.990;2023-06-26T01:23:21;21.60;99.90
52621;DHT22;38515;53.160;6.990;2023-06-26T01:28:43;21.60;99.90
52621;DHT22;38515;53.160;6.990;2023-06-26T01:31:11;21.60;99.90
52621;DHT22;38515;53.160;6.990;2023-06-26T01:33:38;21.60;99.90
52621;DHT22;38515;53.160;6.990;2023-06-26T01:36:05;21.50;99.90
52621;DHT22;38515;53.160;6.990;2023-06-26T01:38:31;21.50;99.90
52621;DHT22;38515;53.160;6.990;2023-06-26T01:40:57;21.50;99.90
52621;DHT22;38515;53.160;6.990;2023-06-26T01:46:21;21.50;99.90
52621;DHT22;38515;53.160;6.990;2023-06-26T01:51:38;21.40;99.90
52621;DHT22;38515;53.160;6.990;2023-06-26T01:54:12;21.40;99.90
52621;DHT22;38515;53.160;6.990;2023-06-26T01:56:40;21.30;99.90
52621;DHT22;38515;53.160;6.990;2023-06-26T01:59:07;21.30;99.90
52621;DHT22;38515;53.160;6.990;2023-06-26T02:01:33;21.30;99.90
52621;DHT22;38515;53.160;6.990;2023-06-26T02:03:59;21.30;99.90
52621;DHT22;38515;53.160;6.990;2023-06-26T02:06:25;21.30;99.90
52621;DHT22;38515;53.160;6.990;2023-06-26T02:08:51;21.20;99.90
52621;DHT22;38515;53.160;6.990;2023-06-26T02:11:17;21.20;99.90
52621;DHT22;38515;53.160;6.990;2023-06-26T02:13:43;21.20;99.90
52621;DHT22;38515;53.160;6.990;2023-06-26T02:16:09;21.10;99.90
52621;DHT22;38515;53.160;6.990;2023-06-26T02:18:35;21.20;99.90
52621;DHT22;38515;53.160;6.990;2023-06-26T02:21:02;21.10;99.90
52621;DHT22;38515;53.160;6.990;2023-06-26T02:23:29;21.10;99.90
52621;DHT22;38515;53.160;6.990;2023-06-26T02:25:54;21.10;99.90
52621;DHT22;38515;53.160;6.990;2023-06-26T02:28:20;21.10;99.90
52621;DHT22;38515;53.160;6.990;2023-06-26T02:30:46;21.10;99.90
52621;DHT22;38515;53.160;6.990;2023-06-26T02:33:12;21.10;99.90
52621;DHT22;38515;53.160;6.990;2023-06-26T02:35:38;21.10;99.90
52621;DHT22;38515;53.160;6.990;2023-06-26T02:38:04;21.10;99.90
52621;DHT22;38515;53.160;6.990;2023-06-26T02:40:30;21.00;99.90
52621;DHT22;38515;53.160;6.990;2023-06-26T02:42:56;21.00;99.90
52621;DHT22;38515;53.160;6.990;2023-06-26T02:45:21;21.00;99.90
52621;DHT22;38515;53.160;6.990;2023-06-26T02:47:47;20.90;99.90
52621;DHT22;38515;53.160;6.990;2023-06-26T02:50:13;20.90;99.90
52621;DHT22;38515;53.160;6.990;2023-06-26T02:52:39;20.90;99.90
52621;DHT22;38515;53.160;6.990;2023-06-26T02:55:05;20.90;99.90
52621;DHT22;38515;53.160;6.990;2023-06-26T02:57:31;20.90;99.90
52621;DHT22;38515;53.160;6.990;2023-06-26T02:59:57;20.90;99.90
52621;DHT22;38515;53.160;6.990;2023-06-26T03:02:23;20.80;99.90
52621;DHT22;38515;53.160;6.990;2023-06-26T03:04:48;20.70;99.90
52621;DHT22;38515;53.160;6.990;2023-06-26T03:07:15;20.70;99.90
52621;DHT22;38515;53.160;6.990;2023-06-26T03:09:41;20.70;99.90
52621;DHT22;38515;53.160;6.990;2023-06-26T03:12:08;20.60;99.90
52621;DHT22;38515;53.160;6.990;2023-06-26T03:14:34;20.50;99.90
52621;DHT22;38515;53.160;6.990;2023-06-26T03:17:00;20.40;99.90
52621;DHT22;38515;53.160;6.990;2023-06-26T03:19:29;20.30;99.90
52621;DHT22;38515;53.160;6.990;2023-06-26T03:21:55;20.30;99.90
52621;DHT22;38515;53.160;6.990;2023-06-26T03:24:21;20.20;99.90
52621;DHT22;38515;53.160;6.990;2023-06-26T03:26:46;20.30;99.90
52621;DHT22;38515;53.160;6.990;2023-06-26T03:29:12;20.20;99.90
52621;DHT22;38515;53.160;6.990;2023-06-26T03:31:38;20.20;99.90
52621;DHT22;38515;53.160;6.990;2023-06-26T03:34:04;20.20;99.90
52621;DHT22;38515;53.160;6.990;2023-06-26T03:36:30;20.20;99.90
52621;DHT22;38515;53.160;6.990;2023-06-26T03:38:56;20.20;99.90
52621;DHT22;38515;53.160;6.990;2023-06-26T03:41:25;20.20;99.90
52621;DHT22;38515;53.160;6.990;2023-06-26T03:43:50;20.20;99.90
52621;DHT22;38515;53.160;6.990;2023-06-26T03:46:16;20.20;99.90
52621;DHT22;38515;53.160;6.990;2023-06-26T03:48:42;20.20;99.90
52621;DHT22;38515;53.160;6.990;2023-06-26T03:51:08;20.20;99.90
52621;DHT22;38515;53.160;6.990;2023-06-26T03:53:34;20.20;99.90
52621;DHT22;38515;53.160;6.990;2023-06-26T03:56:00;20.20;99.90
52621;DHT22;38515;53.160;6.990;2023-06-26T03:58:26;20.10;99.90
52621;DHT22;38515;53.160;6.990;2023-06-26T04:00:52;20.10;99.90
52621;DHT22;38515;53.160;6.990;2023-06-26T04:03:18;20.10;99.90
52621;DHT22;38515;53.160;6.990;2023-06-26T04:05:44;20.00;99.90
52621;DHT22;38515;53.160;6.990;2023-06-26T04:08:11;20.00;99.90
52621;DHT22;38515;53.160;6.990;2023-06-26T04:10:36;20.00;99.90
52621;DHT22;38515;53.160;6.990;2023-06-26T04:13:02;20.00;99.90
52621;DHT22;38515;53.160;6.990;2023-06-26T04:15:28;20.10;99.90
52621;DHT22;38515;53.160;6.990;2023-06-26T04:17:54;20.10;99.90
52621;DHT22;38515;53.160;6.990;2023-06-26T04:20:20;20.10;99.90
52621;DHT22;38515;53.160;6.990;2023-06-26T04:22:46;20.20;99.90
52621;DHT22;38515;53.160;6.990;2023-06-26T04:25:12;20.20;99.90
52621;DHT22;38515;53.160;6.990;2023-06-26T04:27:38;20.20;99.90
52621;DHT22;38515;53.160;6.990;2023-06-26T04:30:04;20.30;99.90
52621;DHT22;38515;53.160;6.990;2023-06-26T04:32:30;20.30;99.90
52621;DHT22;38515;53.160;6.990;2023-06-26T04:34:56;20.40;99.90
52621;DHT22;38515;53.160;6.990;2023-06-26T04:37:23;20.40;99.90
52621;DHT22;38515;53.160;6.990;2023-06-26T04:39:50;20.40;99.90
52621;DHT22;38515;53.160;6.990;2023-06-26T04:42:16;20.40;99.90
52621;DHT22;38515;53.160;6.990;2023-06-26T04:44:42;20.40;99.90
52621;DHT22;38515;53.160;6.990;2023-06-26T04:47:08;20.40;99.90
52621;DHT22;38515;53.160;6.990;2023-06-26T04:49:34;20.40;99.90
52621;DHT22;38515;53.160;6.990;2023-06-26T04:52:00;20.40;99.90
52621;DHT22;38515;53.160;6.990;2023-06-26T04:54:27;20.40;99.90
52621;DHT22;38515;53.160;6.990;2023-06-26T04:56:53;20.40;99.90
52621;DHT22;38515;53.160;6.990;2023-06-26T04:59:19;20.50;99.90
52621;DHT22;38515;53.160;6.990;2023-06-26T05:01:45;20.50;99.90
52621;DHT22;38515;53.160;6.990;2023-06-26T05:04:14;20.60;99.90
52621;DHT22;38515;53.160;6.990;2023-06-26T05:06:43;20.60;99.90
52621;DHT22;38515;53.160;6.990;2023-06-26T05:09:09;20.70;99.90
52621;DHT22;38515;53.160;6.990;2023-06-26T05:11:36;20.80;99.90
52621;DHT22;38515;53.160;6.990;2023-06-26T05:14:02;20.80;99.90
52621;DHT22;38515;53.160;6.990;2023-06-26T05:16:28;21.00;99.90
52621;DHT22;38515;53.160;6.990;2023-06-26T05:18:54;21.00;99.90
52621;DHT22;38515;53.160;6.990;2023-06-26T05:21:20;21.10;99.90
52621;DHT22;38515;53.160;6.990;2023-06-26T05:23:47;21.20;99.90
52621;DHT22;38515;53.160;6.990;2023-06-26T05:26:13;21.20;99.90
52621;DHT22;38515;53.160;6.990;2023-06-26T05:28:39;21.40;99.90
52621;DHT22;38515;53.160;6.990;2023-06-26T05:31:05;21.50;99.90
52621;DHT22;38515;53.160;6.990;2023-06-26T05:33:35;21.50;99.90
52621;DHT22;38515;53.160;6.990;2023-06-26T05:36:04;21.50;99.90
52621;DHT22;38515;53.160;6.990;2023-06-26T05:38:30;21.50;99.90
52621;DHT22;38515;53.160;6.990;2023-06-26T05:40:56;21.50;99.90
52621;DHT22;38515;53.160;6.990;2023-06-26T05:43:22;21.50;99.90
52621;DHT22;38515;53.160;6.990;2023-06-26T05:45:48;21.60;99.90
52621;DHT22;38515;53.160;6.990;2023-06-26T05:48:14;21.80;99.90
52621;DHT22;38515;53.160;6.990;2023-06-26T05:50:41;21.90;99.90
52621;DHT22;38515;53.160;6.990;2023-06-26T05:53:08;22.00;99.90
52621;DHT22;38515;53.160;6.990;2023-06-26T05:55:34;22.20;99.90
52621;DHT22;38515;53.160;6.990;2023-06-26T05:58:02;22.10;99.90
52621;DHT22;38515;53.160;6.990;2023-06-26T06:00:28;22.00;99.90
52621;DHT22;38515;53.160;6.990;2023-06-26T06:02:54;22.00;99.90
52621;DHT22;38515;53.160;6.990;2023-06-26T06:05:21;21.90;99.90
52621;DHT22;38515;53.160;6.990;2023-06-26T06:07:48;21.80;99.90
52621;DHT22;38515;53.160;6.990;2023-06-26T06:10:13;21.50;99.90
52621;DHT22;38515;53.160;6.990;2023-06-26T06:12:39;21.40;99.90
52621;DHT22;38515;53.160;6.990;2023-06-26T06:15:06;21.30;99.90
52621;DHT22;38515;53.160;6.990;2023-06-26T06:17:32;21.20;99.90
52621;DHT22;38515;53.160;6.990;2023-06-26T06:19:58;21.00;99.90
52621;DHT22;38515;53.160;6.990;2023-06-26T06:22:23;20.80;99.90
52621;DHT22;38515;53.160;6.990;2023-06-26T06:24:50;20.70;99.90
52621;DHT22;38515;53.160;6.990;2023-06-26T06:27:16;20.60;99.90
52621;DHT22;38515;53.160;6.990;2023-06-26T06:29:42;20.50;99.90
52621;DHT22;38515;53.160;6.990;2023-06-26T06:32:08;20.30;99.90
52621;DHT22;38515;53.160;6.990;2023-06-26T06:34:34;20.20;99.90
52621;DHT22;38515;53.160;6.990;2023-06-26T06:37:00;20.00;99.90
52621;DHT22;38515;53.160;6.990;2023-06-26T06:39:26;20.00;99.90
52621;DHT22;38515;53.160;6.990;2023-06-26T06:41:52;19.90;99.90
52621;DHT22;38515;53.160;6.990;2023-06-26T06:44:18;20.00;99.90
52621;DHT22;38515;53.160;6.990;2023-06-26T06:46:44;20.00;99.90
52621;DHT22;38515;53.160;6.990;2023-06-26T06:49:10;20.20;99.90
52621;DHT22;38515;53.160;6.990;2023-06-26T06:51:36;20.20;99.90
52621;DHT22;38515;53.160;6.990;2023-06-26T06:54:02;20.20;99.90
52621;DHT22;38515;53.160;6.990;2023-06-26T06:56:28;20.20;99.90
52621;DHT22;38515;53.160;6.990;2023-06-26T06:58:54;20.30;99.90
52621;DHT22;38515;53.160;6.990;2023-06-26T07:01:19;20.60;99.90
52621;DHT22;38515;53.160;6.990;2023-06-26T07:03:45;20.80;99.90
52621;DHT22;38515;53.160;6.990;2023-06-26T07:06:11;20.90;99.90
52621;DHT22;38515;53.160;6.990;2023-06-26T07:08:37;21.00;99.90
52621;DHT22;38515;53.160;6.990;2023-06-26T07:11:03;21.00;99.90
52621;DHT22;38515;53.160;6.990;2023-06-26T07:13:29;20.90;99.90
52621;DHT22;38515;53.160;6.990;2023-06-26T07:15:54;20.90;99.90
52621;DHT22;38515;53.160;6.990;2023-06-26T07:18:20;21.00;99.90
52621;DHT22;38515;53.160;6.990;2023-06-26T07:20:46;21.20;99.90
52621;DHT22;38515;53.160;6.990;2023-06-26T07:23:12;21.40;99.90
52621;DHT22;38515;53.160;6.990;2023-06-26T07:25:39;21.40;99.90
52621;DHT22;38515;53.160;6.990;2023-06-26T07:28:12;21.40;99.90
52621;DHT22;38515;53.160;6.990;2023-06-26T07:30:39;21.70;99.90
52621;DHT22;38515;53.160;6.990;2023-06-26T07:33:04;21.80;99.90
52621;DHT22;38515;53.160;6.990;2023-06-26T07:35:30;21.90;99.90
52621;DHT22;38515;53.160;6.990;2023-06-26T07:37:59;22.00;99.90
52621;DHT22;38515;53.160;6.990;2023-06-26T07:40:26;22.10;99.90
52621;DHT22;38515;53.160;6.990;2023-06-26T07:42:52;22.10;99.90
52621;DHT22;38515;53.160;6.990;2023-06-26T07:45:19;22.10;99.90
52621;DHT22;38515;53.160;6.990;2023-06-26T07:47:45;22.10;99.90
52621;DHT22;38515;53.160;6.990;2023-06-26T07:50:11;22.00;99.90
52621;DHT22;38515;53.160;6.990;2023-06-26T07:52:46;22.00;99.90
52621;DHT22;38515;53.160;6.990;2023-06-26T07:55:12;22.00;99.90
52621;DHT22;38515;53.160;6.990;2023-06-26T07:57:38;22.20;99.90
52621;DHT22;38515;53.160;6.990;2023-06-26T08:00:04;22.10;99.90
52621;DHT22;38515;53.160;6.990;2023-06-26T08:02:32;22.10;99.90
52621;DHT22;38515;53.160;6.990;2023-06-26T08:04:58;22.10;99.90
52621;DHT22;38515;53.160;6.990;2023-06-26T08:07:24;22.10;99.90
52621;DHT22;38515;53.160;6.990;2023-06-26T08:09:50;22.10;99.90
52621;DHT22;38515;53.160;6.990;2023-06-26T08:12:16;22.10;99.90
52621;DHT22;38515;53.160;6.990;2023-06-26T08:14:41;22.10;99.90
52621;DHT22;38515;53.160;6.990;2023-06-26T08:17:07;22.10;99.90
52621;DHT22;38515;53.160;6.990;2023-06-26T08:19:33;22.20;99.90
52621;DHT22;38515;53.160;6.990;2023-06-26T08:21:59;22.10;99.90
52621;DHT22;38515;53.160;6.990;2023-06-26T08:24:25;22.20;99.90
52621;DHT22;38515;53.160;6.990;2023-06-26T08:26:51;22.10;99.90
52621;DHT22;38515;53.160;6.990;2023-06-26T08:29:19;22.00;99.90
52621;DHT22;38515;53.160;6.990;2023-06-26T08:31:45;21.80;99.90
52621;DHT22;38515;53.160;6.990;2023-06-26T08:34:11;21.70;99.90
52621;DHT22;38515;53.160;6.990;2023-06-26T08:36:37;21.80;99.90
52621;DHT22;38515;53.160;6.990;2023-06-26T08:39:04;21.70;99.90
52621;DHT22;38515;53.160;6.990;2023-06-26T08:41:31;22.00;99.90
52621;DHT22;38515;53.160;6.990;2023-06-26T08:43:57;21.90;99.90
52621;DHT22;38515;53.160;6.990;2023-06-26T08:46:23;21.60;99.90
52621;DHT22;38515;53.160;6.990;2023-06-26T08:48:55;21.40;99.90
52621;DHT22;38515;53.160;6.990;2023-06-26T08:51:24;21.30;99.90
52621;DHT22;38515;53.160;6.990;2023-06-26T08:53:58;21.40;99.90
52621;DHT22;38515;53.160;6.990;2023-06-26T08:56:40;21.40;99.90
52621;DHT22;38515;53.160;6.990;2023-06-26T08:59:07;21.50;99.90
52621;DHT22;38515;53.160;6.990;2023-06-26T09:01:36;21.50;99.90
52621;DHT22;38515;53.160;6.990;2023-06-26T09:04:03;21.50;99.90
52621;DHT22;38515;53.160;6.990;2023-06-26T09:06:28;21.50;99.90
52621;DHT22;38515;53.160;6.990;2023-06-26T09:08:55;21.40;99.90
52621;DHT22;38515;53.160;6.990;2023-06-26T09:11:21;21.30;99.90
52621;DHT22;38515;53.160;6.990;2023-06-26T09:13:47;21.30;99.90
52621;DHT22;38515;53.160;6.990;2023-06-26T09:16:13;21.50;99.90
52621;DHT22;38515;53.160;6.990;2023-06-26T09:18:44;21.50;99.90
52621;DHT22;38515;53.160;6.990;2023-06-26T09:21:14;21.50;99.90
52621;DHT22;38515;53.160;6.990;2023-06-26T09:23:40;21.40;99.90
52621;DHT22;38515;53.160;6.990;2023-06-26T09:26:07;21.40;99.90
52621;DHT22;38515;53.160;6.990;2023-06-26T09:28:34;21.30;99.90
52621;DHT22;38515;53.160;6.990;2023-06-26T09:31:04;21.20;99.90
52621;DHT22;38515;53.160;6.990;2023-06-26T09:33:34;21.20;99.90
52621;DHT22;38515;53.160;6.990;2023-06-26T09:36:04;21.20;99.90
52621;DHT22;38515;53.160;6.990;2023-06-26T09:38:30;21.20;99.90
52621;DHT22;38515;53.160;6.990;2023-06-26T09:40:56;21.20;99.90
52621;DHT22;38515;53.160;6.990;2023-06-26T09:43:23;21.20;99.90
52621;DHT22;38515;53.160;6.990;2023-06-26T09:45:50;21.30;99.90
52621;DHT22;38515;53.160;6.990;2023-06-26T09:48:16;21.40;99.90
52621;DHT22;38515;53.160;6.990;2023-06-26T09:50:46;21.50;99.90
52621;DHT22;38515;53.160;6.990;2023-06-26T09:53:15;21.70;99.90
52621;DHT22;38515;53.160;6.990;2023-06-26T09:55:44;22.00;99.90
52621;DHT22;38515;53.160;6.990;2023-06-26T09:58:15;22.10;99.90
52621;DHT22;38515;53.160;6.990;2023-06-26T10:00:43;22.10;99.90
52621;DHT22;38515;53.160;6.990;2023-06-26T10:03:11;22.10;99.90
52621;DHT22;38515;53.160;6.990;2023-06-26T10:05:39;22.10;99.90
52621;DHT22;38515;53.160;6.990;2023-06-26T10:08:06;22.00;99.90
52621;DHT22;38515;53.160;6.990;2023-06-26T10:10:34;22.00;99.90
52621;DHT22;38515;53.160;6.990;2023-06-26T10:13:06;22.30;99.90
52621;DHT22;38515;53.160;6.990;2023-06-26T10:15:33;22.60;99.90
52621;DHT22;38515;53.160;6.990;2023-06-26T10:18:01;22.70;99.90
52621;DHT22;38515;53.160;6.990;2023-06-26T10:20:27;22.40;99.90
52621;DHT22;38515;53.160;6.990;2023-06-26T10:22:54;22.40;99.90
52621;DHT22;38515;53.160;6.990;2023-06-26T10:25:21;22.50;99.90
52621;DHT22;38515;53.160;6.990;2023-06-26T10:27:55;22.70;99.90
52621;DHT22;38515;53.160;6.990;2023-06-26T10:30:26;22.90;99.90
52621;DHT22;38515;53.160;6.990;2023-06-26T10:32:54;22.70;99.80
52621;DHT22;38515;53.160;6.990;2023-06-26T10:35:20;22.60;99.40
52621;DHT22;38515;53.160;6.990;2023-06-26T10:37:48;22.40;99.10
52621;DHT22;38515;53.160;6.990;2023-06-26T10:40:22;22.40;99.00
52621;DHT22;38515;53.160;6.990;2023-06-26T10:42:48;22.30;97.80
52621;DHT22;38515;53.160;6.990;2023-06-26T10:45:28;22.30;98.00
52621;DHT22;38515;53.160;6.990;2023-06-26T10:47:54;22.10;97.30
52621;DHT22;38515;53.160;6.990;2023-06-26T10:50:29;22.10;97.90
52621;DHT22;38515;53.160;6.990;2023-06-26T10:58:30;22.70;96.60
52621;DHT22;38515;53.160;6.990;2023-06-26T11:01:23;22.70;96.10
52621;DHT22;38515;53.160;6.990;2023-06-26T11:04:03;22.60;96.00
52621;DHT22;38515;53.160;6.990;2023-06-26T11:06:30;22.60;96.00
52621;DHT22;38515;53.160;6.990;2023-06-26T11:09:11;22.50;96.20
52621;DHT22;38515;53.160;6.990;2023-06-26T11:12:10;22.60;96.00
52621;DHT22;38515;53.160;6.990;2023-06-26T11:14:36;22.60;94.90
52621;DHT22;38515;53.160;6.990;2023-06-26T11:17:03;22.60;95.80
52621;DHT22;38515;53.160;6.990;2023-06-26T11:19:29;22.60;94.80
52621;DHT22;38515;53.160;6.990;2023-06-26T11:22:02;22.50;94.90
52621;DHT22;38515;53.160;6.990;2023-06-26T11:24:29;22.70;94.30
52621;DHT22;38515;53.160;6.990;2023-06-26T11:27:00;22.90;95.00
52621;DHT22;38515;53.160;6.990;2023-06-26T11:29:26;23.20;95.20
52621;DHT22;38515;53.160;6.990;2023-06-26T11:31:58;23.40;95.80
52621;DHT22;38515;53.160;6.990;2023-06-26T11:34:30;23.50;94.40
52621;DHT22;38515;53.160;6.990;2023-06-26T11:36:56;23.20;94.30
52621;DHT22;38515;53.160;6.990;2023-06-26T11:39:22;23.00;94.50
52621;DHT22;38515;53.160;6.990;2023-06-26T11:41:49;23.00;94.60
52621;DHT22;38515;53.160;6.990;2023-06-26T11:44:15;23.00;94.00
52621;DHT22;38515;53.160;6.990;2023-06-26T11:46:46;22.90;93.50
52621;DHT22;38515;53.160;6.990;2023-06-26T11:49:16;22.80;93.80
52621;DHT22;38515;53.160;6.990;2023-06-26T11:51:42;22.70;93.90
52621;DHT22;38515;53.160;6.990;2023-06-26T11:54:08;22.60;93.80
52621;DHT22;38515;53.160;6.990;2023-06-26T11:56:34;22.40;92.90
52621;DHT22;38515;53.160;6.990;2023-06-26T11:59:04;22.30;92.70
52621;DHT22;38515;53.160;6.990;2023-06-26T12:01:41;22.40;92.70
52621;DHT22;38515;53.160;6.990;2023-06-26T12:04:09;22.40;92.60
52621;DHT22;38515;53.160;6.990;2023-06-26T12:06:37;22.50;92.80
52621;DHT22;38515;53.160;6.990;2023-06-26T12:09:07;22.40;92.70
52621;DHT22;38515;53.160;6.990;2023-06-26T12:11:35;22.30;93.30
52621;DHT22;38515;53.160;6.990;2023-06-26T12:14:02;22.30;93.40
52621;DHT22;38515;53.160;6.990;2023-06-26T12:16:30;22.40;93.10
52621;DHT22;38515;53.160;6.990;2023-06-26T12:19:03;22.50;93.20
52621;DHT22;38515;53.160;6.990;2023-06-26T12:24:14;22.60;92.50
52621;DHT22;38515;53.160;6.990;2023-06-26T12:26:46;22.40;92.80
52621;DHT22;38515;53.160;6.990;2023-06-26T12:29:17;22.30;93.20
52621;DHT22;38515;53.160;6.990;2023-06-26T12:31:45;22.40;93.60
52621;DHT22;38515;53.160;6.990;2023-06-26T12:34:14;22.50;93.40
52621;DHT22;38515;53.160;6.990;2023-06-26T12:39:21;22.20;93.40
52621;DHT22;38515;53.160;6.990;2023-06-26T12:41:49;22.10;92.60
52621;DHT22;38515;53.160;6.990;2023-06-26T12:46:49;22.30;92.20
52621;DHT22;38515;53.160;6.990;2023-06-26T12:49:18;22.40;93.10
52621;DHT22;38515;53.160;6.990;2023-06-26T12:51:45;22.30;93.20
52621;DHT22;38515;53.160;6.990;2023-06-26T12:54:13;22.30;93.40
52621;DHT22;38515;53.160;6.990;2023-06-26T12:56:39;22.50;94.00
52621;DHT22;38515;53.160;6.990;2023-06-26T12:59:05;22.40;93.10
52621;DHT22;38515;53.160;6.990;2023-06-26T13:01:31;22.20;92.80
52621;DHT22;38515;53.160;6.990;2023-06-26T13:03:57;22.00;92.80
52621;DHT22;38515;53.160;6.990;2023-06-26T13:06:23;21.90;93.40
52621;DHT22;38515;53.160;6.990;2023-06-26T13:08:48;21.90;92.60
52621;DHT22;38515;53.160;6.990;2023-06-26T13:11:14;21.90;92.00
52621;DHT22;38515;53.160;6.990;2023-06-26T13:13:42;21.80;92.30
52621;DHT22;38515;53.160;6.990;2023-06-26T13:16:08;21.70;92.80
52621;DHT22;38515;53.160;6.990;2023-06-26T13:18:37;21.80;92.70
52621;DHT22;38515;53.160;6.990;2023-06-26T13:21:03;21.70;92.70
52621;DHT22;38515;53.160;6.990;2023-06-26T13:23:29;21.60;92.50
52621;DHT22;38515;53.160;6.990;2023-06-26T13:25:55;21.50;92.90
52621;DHT22;38515;53.160;6.990;2023-06-26T13:28:21;21.50;93.10
52621;DHT22;38515;53.160;6.990;2023-06-26T13:30:47;21.50;93.00
52621;DHT22;38515;53.160;6.990;2023-06-26T13:33:13;21.60;93.30
52621;DHT22;38515;53.160;6.990;2023-06-26T13:35:38;21.70;93.30
52621;DHT22;38515;53.160;6.990;2023-06-26T13:38:04;21.70;93.20
52621;DHT22;38515;53.160;6.990;2023-06-26T13:40:30;21.80;93.30
52621;DHT22;38515;53.160;6.990;2023-06-26T13:42:56;21.80;93.00
52621;DHT22;38515;53.160;6.990;2023-06-26T13:45:22;21.80;92.60
52621;DHT22;38515;53.160;6.990;2023-06-26T13:47:48;21.70;92.70
52621;DHT22;38515;53.160;6.990;2023-06-26T13:50:14;21.80;92.80
52621;DHT22;38515;53.160;6.990;2023-06-26T13:52:40;21.90;93.60
52621;DHT22;38515;53.160;6.990;2023-06-26T13:55:07;21.90;93.40
52621;DHT22;38515;53.160;6.990;2023-06-26T13:57:32;21.80;93.20
52621;DHT22;38515;53.160;6.990;2023-06-26T14:00:02;21.70;93.20
52621;DHT22;38515;53.160;6.990;2023-06-26T14:02:29;21.60;93.00
52621;DHT22;38515;53.160;6.990;2023-06-26T14:04:54;21.60;93.50
52621;DHT22;38515;53.160;6.990;2023-06-26T14:07:21;21.50;93.20
52621;DHT22;38515;53.160;6.990;2023-06-26T14:09:47;21.50;93.50
52621;DHT22;38515;53.160;6.990;2023-06-26T14:12:13;21.50;93.80
52621;DHT22;38515;53.160;6.990;2023-06-26T14:14:39;21.40;94.00
52621;DHT22;38515;53.160;6.990;2023-06-26T14:17:05;21.30;94.10
52621;DHT22;38515;53.160;6.990;2023-06-26T14:19:31;21.20;94.70
52621;DHT22;38515;53.160;6.990;2023-06-26T14:21:57;21.10;95.10
52621;DHT22;38515;53.160;6.990;2023-06-26T14:24:23;21.10;95.50
52621;DHT22;38515;53.160;6.990;2023-06-26T14:26:49;21.10;95.60
52621;DHT22;38515;53.160;6.990;2023-06-26T14:29:15;21.10;95.80
52621;DHT22;38515;53.160;6.990;2023-06-26T14:31:43;21.10;96.10
52621;DHT22;38515;53.160;6.990;2023-06-26T14:34:09;21.00;95.30
52621;DHT22;38515;53.160;6.990;2023-06-26T14:36:35;20.90;95.20
52621;DHT22;38515;53.160;6.990;2023-06-26T14:39:02;20.80;95.10
52621;DHT22;38515;53.160;6.990;2023-06-26T14:41:30;20.70;95.20
52621;DHT22;38515;53.160;6.990;2023-06-26T14:43:56;20.70;95.30
52621;DHT22;38515;53.160;6.990;2023-06-26T14:46:21;20.80;95.00
52621;DHT22;38515;53.160;6.990;2023-06-26T14:48:48;21.10;94.70
52621;DHT22;38515;53.160;6.990;2023-06-26T14:51:14;21.20;94.50
52621;DHT22;38515;53.160;6.990;2023-06-26T14:53:43;21.30;94.70
52621;DHT22;38515;53.160;6.990;2023-06-26T14:56:09;21.30;94.30
52621;DHT22;38515;53.160;6.990;2023-06-26T14:58:53;21.30;94.70
52621;DHT22;38515;53.160;6.990;2023-06-26T15:01:19;21.30;95.00
52621;DHT22;38515;53.160;6.990;2023-06-26T15:03:46;21.30;94.40
52621;DHT22;38515;53.160;6.990;2023-06-26T15:06:12;21.40;94.60
52621;DHT22;38515;53.160;6.990;2023-06-26T15:08:38;21.50;95.00
52621;DHT22;38515;53.160;6.990;2023-06-26T15:11:04;21.50;94.60
52621;DHT22;38515;53.160;6.990;2023-06-26T15:13:30;21.50;94.40
52621;DHT22;38515;53.160;6.990;2023-06-26T15:15:59;21.50;94.50
52621;DHT22;38515;53.160;6.990;2023-06-26T15:18:25;21.50;95.20
52621;DHT22;38515;53.160;6.990;2023-06-26T15:20:51;21.40;95.10
52621;DHT22;38515;53.160;6.990;2023-06-26T15:23:17;21.20;94.90
52621;DHT22;38515;53.160;6.990;2023-06-26T15:25:43;21.00;95.00
52621;DHT22;38515;53.160;6.990;2023-06-26T15:28:08;21.00;95.10
52621;DHT22;38515;53.160;6.990;2023-06-26T15:30:34;21.10;95.00
52621;DHT22;38515;53.160;6.990;2023-06-26T15:33:00;21.20;94.80
52621;DHT22;38515;53.160;6.990;2023-06-26T15:35:26;21.30;95.00
52621;DHT22;38515;53.160;6.990;2023-06-26T15:37:52;21.30;95.00
52621;DHT22;38515;53.160;6.990;2023-06-26T15:40:18;21.30;94.90
52621;DHT22;38515;53.160;6.990;2023-06-26T15:42:48;21.20;95.20
52621;DHT22;38515;53.160;6.990;2023-06-26T15:45:16;21.10;94.90
52621;DHT22;38515;53.160;6.990;2023-06-26T15:47:48;21.00;94.90
52621;DHT22;38515;53.160;6.990;2023-06-26T15:50:15;21.00;94.00
52621;DHT22;38515;53.160;6.990;2023-06-26T15:52:41;20.70;93.50